createdAt,value
2018-05-09T00:02:02.852Z,82.27
2018-05-09T00:04:32.032Z,81.07
2018-05-09T00:07:01.165Z,79.67
2018-05-09T00:09:30.300Z,81.67
2018-05-09T00:11:59.445Z,91.00
2018-05-09T00:14:28.584Z,84.57
2018-05-09T00:16:57.724Z,81.40
2018-05-09T00:19:26.882Z,84.00
2018-05-09T00:21:56.024Z,78.87
2018-05-09T00:24:25.166Z,81.20
2018-05-09T00:26:54.340Z,85.63
2018-05-09T00:29:23.480Z,83.17
2018-05-09T00:31:52.618Z,85.93
2018-05-09T00:34:21.779Z,83.30
2018-05-09T00:36:50.913Z,83.43
2018-05-09T00:39:20.047Z,83.33
2018-05-09T00:41:49.207Z,84.87
2018-05-09T00:44:18.320Z,85.70
2018-05-09T00:46:47.444Z,83.50
2018-05-09T00:49:16.593Z,86.70
2018-05-09T00:51:46.178Z,83.60
2018-05-09T00:54:21.317Z,89.43
2018-05-09T00:56:50.454Z,87.23
2018-05-09T00:59:19.564Z,83.47
2018-05-09T01:01:48.736Z,87.07
2018-05-09T01:04:17.845Z,84.00
2018-05-09T01:06:46.984Z,82.17
2018-05-09T01:09:16.144Z,86.50
2018-05-09T01:11:45.293Z,82.20
2018-05-09T01:14:14.429Z,84.27
2018-05-09T01:16:43.615Z,85.37
2018-05-09T01:19:12.768Z,80.70
2018-05-09T01:21:41.887Z,80.67
2018-05-09T01:24:11.054Z,81.13
2018-05-09T01:26:40.224Z,84.47
2018-05-09T01:29:09.416Z,84.10
2018-05-09T01:31:38.547Z,84.70
2018-05-09T01:34:07.687Z,83.00
2018-05-09T01:36:36.857Z,85.67
2018-05-09T01:39:06.025Z,85.57
2018-05-09T01:41:35.140Z,87.77
2018-05-09T01:44:04.268Z,83.10
2018-05-09T01:46:33.440Z,86.80
2018-05-09T01:49:02.557Z,82.80
2018-05-09T01:51:31.705Z,83.67
2018-05-09T01:54:01.034Z,86.40
2018-05-09T01:56:30.164Z,89.63
2018-05-09T01:58:59.288Z,84.20
2018-05-09T02:01:28.427Z,84.67
2018-05-09T02:03:57.544Z,88.97
2018-05-09T02:06:26.656Z,91.10
2018-05-09T02:08:55.833Z,85.97
2018-05-09T02:11:24.942Z,85.30
2018-05-09T02:13:54.083Z,87.27
2018-05-09T02:16:23.240Z,87.47
2018-05-09T02:18:52.372Z,89.27
2018-05-09T02:21:21.489Z,88.60
2018-05-09T02:23:50.639Z,89.70
2018-05-09T02:26:19.770Z,88.77
2018-05-09T02:28:48.890Z,87.60
2018-05-09T02:31:18.219Z,88.20
2018-05-09T02:33:47.215Z,86.17
2018-05-09T02:36:16.328Z,84.90
2018-05-09T02:38:45.462Z,90.30
2018-05-09T02:41:14.583Z,90.80
2018-05-09T02:43:43.697Z,89.17
2018-05-09T02:46:12.837Z,87.67
2018-05-09T02:48:41.973Z,94.73
2018-05-09T02:51:11.140Z,86.63
2018-05-09T02:53:40.287Z,87.90
2018-05-09T02:56:09.527Z,86.63
2018-05-09T02:58:38.670Z,83.17
2018-05-09T03:01:07.796Z,85.90
2018-05-09T03:03:36.931Z,85.90
2018-05-09T03:06:06.064Z,87.57
2018-05-09T03:08:35.215Z,86.07
2018-05-09T03:11:04.358Z,87.07
2018-05-09T03:13:33.526Z,84.10
2018-05-09T03:16:02.663Z,91.40
2018-05-09T03:18:31.792Z,86.20
2018-05-09T03:21:00.956Z,89.47
2018-05-09T03:23:30.106Z,87.23
2018-05-09T03:25:59.243Z,86.43
2018-05-09T03:28:28.423Z,84.50
2018-05-09T03:30:57.535Z,84.10
2018-05-09T03:33:26.668Z,85.97
2018-05-09T03:35:55.843Z,85.77
2018-05-09T03:38:24.952Z,86.30
2018-05-09T03:40:54.119Z,88.47
2018-05-09T03:43:23.238Z,82.37
2018-05-09T03:45:52.353Z,84.10
2018-05-09T03:48:21.502Z,92.53
2018-05-09T03:50:50.644Z,85.30
2018-05-09T03:53:19.873Z,85.67
2018-05-09T03:55:48.955Z,86.83
2018-05-09T03:58:18.104Z,86.70
2018-05-09T04:00:47.223Z,88.60
2018-05-09T04:03:22.348Z,87.07
2018-05-09T04:05:57.406Z,89.80
2018-05-09T04:08:32.311Z,88.50
2018-05-09T04:11:01.424Z,85.30
2018-05-09T04:13:30.551Z,89.50
2018-05-09T04:15:59.888Z,85.73
2018-05-09T04:18:29.032Z,85.33
2018-05-09T04:20:58.223Z,90.50
2018-05-09T04:23:27.336Z,83.87
2018-05-09T04:25:56.471Z,83.60
2018-05-09T04:28:25.584Z,84.60
2018-05-09T04:30:54.748Z,86.40
2018-05-09T04:33:23.898Z,85.57
2018-05-09T04:35:53.016Z,86.40
2018-05-09T04:38:22.191Z,83.30
2018-05-09T04:40:51.332Z,83.67
2018-05-09T04:43:20.504Z,83.37
2018-05-09T04:45:49.624Z,84.40
2018-05-09T04:48:18.756Z,86.10
2018-05-09T04:50:47.923Z,84.47
2018-05-09T04:53:17.056Z,87.73
2018-05-09T04:55:46.282Z,88.33
2018-05-09T04:58:15.331Z,88.47
2018-05-09T05:00:44.450Z,87.97
2018-05-09T05:03:13.562Z,90.30
2018-05-09T05:05:42.741Z,92.20
2018-05-09T05:08:11.853Z,97.33
2018-05-09T05:10:40.984Z,96.83
2018-05-09T05:13:10.132Z,93.67
2018-05-09T05:15:39.288Z,88.57
2018-05-09T05:18:08.880Z,79.83
2018-05-09T05:20:38.037Z,81.37
2018-05-09T05:23:07.200Z,83.97
2018-05-09T05:25:36.367Z,86.77
2018-05-09T05:28:05.536Z,90.83
2018-05-09T05:30:34.650Z,88.67
2018-05-09T05:33:03.809Z,88.63
2018-05-09T05:35:32.928Z,87.00
2018-05-09T05:38:02.067Z,85.83
2018-05-09T05:40:31.213Z,91.80
2018-05-09T05:43:00.343Z,86.40
2018-05-09T05:45:29.619Z,83.77
2018-05-09T05:47:58.713Z,83.80
2018-05-09T05:50:27.839Z,82.60
2018-05-09T05:52:56.961Z,83.17
2018-05-09T05:55:26.128Z,82.17
2018-05-09T05:57:55.283Z,82.17
2018-05-09T06:00:24.436Z,85.27
2018-05-09T06:02:53.550Z,88.30
2018-05-09T06:05:22.745Z,86.00
2018-05-09T06:07:51.942Z,82.57
2018-05-09T06:10:21.064Z,80.90
2018-05-09T06:12:50.192Z,81.00
2018-05-09T06:15:19.379Z,81.30
2018-05-09T06:17:48.512Z,80.07
2018-05-09T06:20:17.671Z,82.50
2018-05-09T06:22:46.825Z,86.57
2018-05-09T06:25:15.954Z,78.97
2018-05-09T06:27:45.093Z,84.50
2018-05-09T06:30:14.255Z,80.00
2018-05-09T06:32:43.371Z,80.60
2018-05-09T06:35:12.520Z,87.67
2018-05-09T06:37:41.741Z,77.87
2018-05-09T06:40:10.848Z,80.90
2018-05-09T06:42:40.000Z,80.00
2018-05-09T06:45:09.116Z,78.27
2018-05-09T06:47:38.277Z,79.67
2018-05-09T06:50:07.431Z,79.07
2018-05-09T06:52:36.558Z,80.17
2018-05-09T06:55:05.733Z,78.40
2018-05-09T06:57:34.874Z,77.37
2018-05-09T07:00:04.110Z,77.07
2018-05-09T07:02:33.394Z,77.97
2018-05-09T07:05:02.528Z,79.10
2018-05-09T07:07:31.675Z,79.50
2018-05-09T07:10:00.813Z,76.87
2018-05-09T07:12:30.026Z,79.27
2018-05-09T07:14:59.156Z,78.07
2018-05-09T07:17:28.305Z,78.07
2018-05-09T07:19:57.445Z,77.80
2018-05-09T07:22:26.564Z,78.20
2018-05-09T07:24:55.740Z,77.90
2018-05-09T07:27:24.863Z,77.70
2018-05-09T07:29:53.984Z,78.13
2018-05-09T07:32:23.131Z,81.37
2018-05-09T07:34:52.284Z,79.73
2018-05-09T07:37:21.410Z,77.97
2018-05-09T07:39:50.610Z,76.10
2018-05-09T07:42:19.725Z,80.40
2018-05-09T07:44:48.844Z,75.73
2018-05-09T07:47:18.012Z,78.57
2018-05-09T07:49:47.132Z,80.47
2018-05-09T07:52:16.270Z,79.00
2018-05-09T07:54:45.416Z,78.40
2018-05-09T07:57:14.561Z,76.57
2018-05-09T07:59:43.701Z,78.07
2018-05-09T08:02:13.208Z,77.27
2018-05-09T08:04:42.352Z,78.37
2018-05-09T08:07:11.549Z,76.03
2018-05-09T08:09:40.725Z,78.80
2018-05-09T08:12:09.875Z,78.23
2018-05-09T08:14:39.039Z,76.37
2018-05-09T08:17:08.197Z,83.33
2018-05-09T08:19:37.318Z,77.50
2018-05-09T08:22:06.461Z,77.43
2018-05-09T08:24:35.651Z,77.37
2018-05-09T08:27:04.818Z,80.47
2018-05-09T08:29:33.977Z,76.37
2018-05-09T08:32:03.118Z,79.33
2018-05-09T08:34:32.238Z,79.70
2018-05-09T08:37:01.413Z,78.43
2018-05-09T08:39:30.526Z,75.43
2018-05-09T08:41:59.659Z,77.60
2018-05-09T08:44:28.819Z,77.23
2018-05-09T08:46:57.988Z,78.23
2018-05-09T08:49:27.149Z,76.80
2018-05-09T08:51:56.315Z,76.87
2018-05-09T08:54:25.461Z,78.10
2018-05-09T08:56:54.562Z,77.43
2018-05-09T08:59:23.726Z,78.37
2018-05-09T09:01:53.736Z,77.00
2018-05-09T09:04:23.006Z,77.40
2018-05-09T09:06:52.103Z,75.90
2018-05-09T09:09:21.238Z,77.43
2018-05-09T09:11:50.409Z,77.83
2018-05-09T09:14:19.617Z,75.70
2018-05-09T09:16:48.753Z,76.57
2018-05-09T09:19:17.896Z,76.43
2018-05-09T09:21:47.155Z,76.07
2018-05-09T09:24:16.292Z,76.73
2018-05-09T09:26:45.472Z,77.50
2018-05-09T09:29:14.654Z,78.97
2018-05-09T09:31:43.775Z,79.57
2018-05-09T09:34:12.976Z,80.80
2018-05-09T09:36:42.192Z,76.93
2018-05-09T09:39:11.353Z,78.77
2018-05-09T09:41:40.478Z,78.20
2018-05-09T09:44:09.808Z,78.47
2018-05-09T09:46:38.984Z,81.97
2018-05-09T09:49:08.121Z,83.00
2018-05-09T09:51:37.294Z,79.73
2018-05-09T09:54:06.460Z,78.23
2018-05-09T09:56:35.592Z,76.80
2018-05-09T09:59:04.729Z,82.87
2018-05-09T10:01:33.898Z,76.97
2018-05-09T10:04:03.072Z,76.97
2018-05-09T10:06:32.193Z,84.80
2018-05-09T10:09:01.312Z,78.10
2018-05-09T10:11:30.504Z,79.07
2018-05-09T10:13:59.703Z,81.97
2018-05-09T10:16:28.854Z,77.97
2018-05-09T10:18:57.996Z,77.50
2018-05-09T10:21:27.136Z,81.37
2018-05-09T10:23:56.273Z,77.00
2018-05-09T10:26:25.492Z,83.57
2018-05-09T10:28:54.661Z,80.60
2018-05-09T10:31:23.969Z,78.17
2018-05-09T10:33:53.057Z,77.07
2018-05-09T10:36:22.252Z,81.07
2018-05-09T10:38:51.397Z,77.77
2018-05-09T10:41:20.547Z,84.20
2018-05-09T10:43:49.701Z,77.47
2018-05-09T10:46:19.228Z,78.07
2018-05-09T10:48:48.344Z,79.60
2018-05-09T10:51:17.503Z,77.33
2018-05-09T10:53:46.643Z,79.17
2018-05-09T10:56:15.818Z,76.97
2018-05-09T10:58:44.954Z,78.07
2018-05-09T11:01:14.100Z,79.57
2018-05-09T11:03:43.264Z,76.57
2018-05-09T11:06:12.400Z,77.90
2018-05-09T11:08:41.531Z,76.87
2018-05-09T11:11:10.696Z,79.70
2018-05-09T11:13:39.810Z,76.90
2018-05-09T11:16:08.949Z,76.17
2018-05-09T11:18:38.109Z,78.70
2018-05-09T11:21:07.285Z,82.03
2018-05-09T11:23:36.460Z,78.40
2018-05-09T11:26:05.611Z,80.97
2018-05-09T11:28:34.725Z,80.43
2018-05-09T11:31:03.903Z,81.97
2018-05-09T11:33:33.013Z,80.20
2018-05-09T11:36:02.154Z,78.03
2018-05-09T11:38:31.290Z,78.17
2018-05-09T11:41:00.414Z,78.73
2018-05-09T11:43:29.567Z,78.10
2018-05-09T11:45:58.713Z,78.47
2018-05-09T11:48:28.268Z,80.40
2018-05-09T11:50:57.420Z,78.53
2018-05-09T11:53:26.551Z,76.47
2018-05-09T11:55:55.720Z,75.60
2018-05-09T11:58:24.840Z,74.77
2018-05-09T12:00:53.949Z,76.27
2018-05-09T12:03:23.103Z,77.17
2018-05-09T12:05:52.223Z,77.03
2018-05-09T12:08:21.385Z,75.17
2018-05-09T12:10:50.616Z,76.60
2018-05-09T12:13:19.667Z,80.00
2018-05-09T12:15:48.792Z,74.87
2018-05-09T12:18:17.941Z,80.00
2018-05-09T12:20:47.060Z,75.87
2018-05-09T12:23:16.186Z,77.97
2018-05-09T12:25:45.302Z,78.83
2018-05-09T12:28:14.422Z,79.80
2018-05-09T12:30:43.544Z,78.00
2018-05-09T12:33:12.769Z,78.67
2018-05-09T12:35:41.959Z,78.40
2018-05-09T12:38:11.109Z,76.67
2018-05-09T12:40:40.252Z,75.07
2018-05-09T12:43:09.395Z,77.40
2018-05-09T12:45:38.579Z,74.93
2018-05-09T12:48:07.746Z,77.57
2018-05-09T12:50:36.855Z,75.30
2018-05-09T12:53:06.003Z,74.83
2018-05-09T12:55:35.116Z,75.90
2018-05-09T12:58:04.232Z,77.53
2018-05-09T13:00:33.401Z,75.90
2018-05-09T13:03:02.545Z,77.70
2018-05-09T13:05:31.695Z,77.37
2018-05-09T13:08:00.825Z,81.30
2018-05-09T13:10:29.981Z,78.10
2018-05-09T13:12:59.144Z,77.10
2018-05-09T13:15:28.306Z,76.60
2018-05-09T13:17:57.428Z,78.47
2018-05-09T13:20:26.609Z,77.10
2018-05-09T13:22:55.727Z,82.00
2018-05-09T13:25:24.901Z,76.07
2018-05-09T13:27:54.040Z,76.50
2018-05-09T13:30:23.253Z,77.43
2018-05-09T13:32:52.419Z,79.30
2018-05-09T13:35:21.544Z,77.80
2018-05-09T13:37:50.721Z,78.17
2018-05-09T13:40:19.876Z,78.70
2018-05-09T13:42:49.167Z,76.80
2018-05-09T13:45:18.365Z,79.00
2018-05-09T13:47:47.493Z,76.37
2018-05-09T13:50:16.630Z,79.67
2018-05-09T13:52:45.764Z,76.07
2018-05-09T13:55:14.907Z,79.97
2018-05-09T13:57:44.161Z,77.30
2018-05-09T14:00:13.348Z,79.83
2018-05-09T14:02:42.520Z,80.50
2018-05-09T14:05:11.647Z,77.37
2018-05-09T14:07:40.790Z,79.87
2018-05-09T14:10:10.037Z,80.10
2018-05-09T14:12:39.160Z,78.73
2018-05-09T14:15:08.353Z,79.07
2018-05-09T14:17:37.489Z,76.37
2018-05-09T14:20:06.636Z,79.57
2018-05-09T14:22:35.823Z,80.40
2018-05-09T14:25:04.954Z,76.07
2018-05-09T14:27:34.116Z,75.80
2018-05-09T14:30:03.281Z,78.90
2018-05-09T14:32:32.426Z,77.50
2018-05-09T14:35:01.603Z,76.00
2018-05-09T14:37:30.748Z,78.90
2018-05-09T14:39:59.869Z,75.57
2018-05-09T14:42:29.051Z,76.70
2018-05-09T14:44:58.254Z,79.30
2018-05-09T14:47:27.384Z,77.10
2018-05-09T14:49:56.526Z,74.50
2018-05-09T14:52:25.703Z,75.90
2018-05-09T14:54:54.858Z,78.60
2018-05-09T14:57:24.006Z,76.97
2018-05-09T14:59:53.123Z,81.03
2018-05-09T15:02:22.306Z,78.00
2018-05-09T15:04:51.425Z,77.83
2018-05-09T15:07:20.576Z,76.37
2018-05-09T15:09:49.724Z,82.63
2018-05-09T15:12:18.868Z,77.07
2018-05-09T15:14:48.010Z,77.57
2018-05-09T15:17:17.173Z,76.97
2018-05-09T15:19:46.285Z,77.43
2018-05-09T15:22:15.397Z,79.10
2018-05-09T15:24:44.553Z,79.00
2018-05-09T15:27:13.673Z,81.77
2018-05-09T15:29:42.803Z,76.50
2018-05-09T15:32:11.968Z,76.13
2018-05-09T15:34:41.467Z,76.90
2018-05-09T15:37:10.605Z,77.87
2018-05-09T15:39:39.740Z,76.00
2018-05-09T15:42:08.861Z,82.97
2018-05-09T15:44:37.977Z,76.73
2018-05-09T15:47:07.128Z,79.17
2018-05-09T15:49:36.255Z,79.03
2018-05-09T15:52:05.409Z,75.27
2018-05-09T15:54:34.546Z,74.77
2018-05-09T15:57:03.699Z,82.07
2018-05-09T15:59:32.856Z,84.63
2018-05-09T16:02:02.019Z,75.60
2018-05-09T16:04:31.135Z,76.13
2018-05-09T16:07:00.261Z,73.83
2018-05-09T16:09:29.413Z,76.17
2018-05-09T16:11:58.537Z,74.50
2018-05-09T16:14:27.715Z,76.60
2018-05-09T16:16:56.827Z,79.27
2018-05-09T16:19:25.961Z,75.60
2018-05-09T16:21:55.134Z,77.50
2018-05-09T16:24:24.274Z,75.87
2018-05-09T16:26:53.413Z,77.80
2018-05-09T16:29:22.560Z,77.67
2018-05-09T16:31:51.721Z,81.87
2018-05-09T16:34:20.850Z,81.80
2018-05-09T16:36:49.980Z,78.93
2018-05-09T16:39:19.123Z,79.00
2018-05-09T16:41:48.292Z,87.40
2018-05-09T16:44:17.433Z,80.70
2018-05-09T16:46:46.642Z,80.17
2018-05-09T16:49:15.792Z,79.30
2018-05-09T16:51:44.920Z,81.50
2018-05-09T16:54:14.162Z,81.10
2018-05-09T16:56:43.305Z,79.20
2018-05-09T16:59:12.476Z,82.50
2018-05-09T17:01:41.623Z,81.70
2018-05-09T17:04:10.741Z,77.00
2018-05-09T17:06:39.917Z,79.10
2018-05-09T17:09:09.052Z,80.60
2018-05-09T17:11:38.194Z,80.57
2018-05-09T17:14:07.365Z,77.60
2018-05-09T17:16:36.499Z,79.20
2018-05-09T17:19:05.625Z,76.47
2018-05-09T17:21:40.508Z,77.83
2018-05-09T17:24:09.664Z,77.37
2018-05-09T17:26:38.804Z,77.80
2018-05-09T17:29:07.964Z,80.17
2018-05-09T17:31:37.108Z,80.50
2018-05-09T17:34:06.239Z,81.40
2018-05-09T17:36:35.412Z,79.20
2018-05-09T17:39:04.839Z,79.93
2018-05-09T17:41:34.003Z,77.23
2018-05-09T17:44:03.164Z,81.50
2018-05-09T17:46:32.325Z,76.43
2018-05-09T17:49:01.484Z,77.67
2018-05-09T17:51:30.618Z,81.00
2018-05-09T17:53:59.735Z,77.57
2018-05-09T17:56:28.855Z,75.57
2018-05-09T17:58:58.095Z,75.07
2018-05-09T18:01:27.215Z,77.63
2018-05-09T18:03:56.389Z,76.90
2018-05-09T18:06:25.519Z,77.37
2018-05-09T18:08:54.636Z,76.03
2018-05-09T18:11:23.756Z,75.80
2018-05-09T18:13:52.927Z,77.20
2018-05-09T18:16:22.101Z,77.10
2018-05-09T18:18:51.222Z,76.97
2018-05-09T18:21:20.341Z,76.57
2018-05-09T18:23:49.492Z,77.37
2018-05-09T18:26:18.647Z,79.43
2018-05-09T18:28:47.786Z,79.40
2018-05-09T18:31:16.976Z,76.50
2018-05-09T18:33:46.095Z,78.47
2018-05-09T18:36:15.223Z,78.90
2018-05-09T18:38:44.395Z,83.07
2018-05-09T18:41:14.033Z,78.87
2018-05-09T18:43:43.183Z,77.90
2018-05-09T18:46:12.355Z,77.47
2018-05-09T18:48:41.537Z,77.37
2018-05-09T18:51:10.688Z,78.77
2018-05-09T18:53:39.875Z,77.43
2018-05-09T18:56:09.017Z,79.00
2018-05-09T18:58:38.201Z,81.37
2018-05-09T19:01:07.386Z,78.30
2018-05-09T19:03:36.550Z,81.10
2018-05-09T19:06:05.713Z,78.20
2018-05-09T19:08:34.869Z,81.43
2018-05-09T19:11:04.069Z,79.70
2018-05-09T19:13:33.258Z,80.60
2018-05-09T19:16:02.412Z,80.30
2018-05-09T19:18:31.600Z,78.17
2018-05-09T19:21:00.712Z,81.57
2018-05-09T19:23:29.857Z,79.53
2018-05-09T19:25:59.049Z,78.90
2018-05-09T19:28:28.200Z,82.20
2018-05-09T19:30:57.363Z,82.60
2018-05-09T19:33:26.521Z,80.27
2018-05-09T19:35:55.660Z,80.80
2018-05-09T19:38:24.828Z,80.33
2018-05-09T19:40:53.940Z,82.10
2018-05-09T19:43:23.144Z,85.47
2018-05-09T19:45:52.298Z,82.87
2018-05-09T19:48:21.433Z,83.27
2018-05-09T19:50:50.590Z,83.27
2018-05-09T19:53:19.761Z,85.63
2018-05-09T19:55:48.884Z,78.07
2018-05-09T19:58:18.091Z,82.87
2018-05-09T20:00:47.239Z,79.47
2018-05-09T20:03:16.376Z,80.10
2018-05-09T20:05:45.527Z,82.57
2018-05-09T20:08:14.777Z,80.40
2018-05-09T20:10:43.921Z,85.37
2018-05-09T20:13:13.079Z,85.37
2018-05-09T20:15:42.291Z,82.13
2018-05-09T20:18:11.411Z,82.53
2018-05-09T20:20:40.559Z,86.67
2018-05-09T20:23:09.777Z,84.17
2018-05-09T20:25:38.900Z,82.43
2018-05-09T20:28:08.045Z,82.27
2018-05-09T20:30:42.932Z,84.70
2018-05-09T20:33:12.188Z,86.90
2018-05-09T20:35:41.327Z,81.87
2018-05-09T20:38:10.489Z,86.63
2018-05-09T20:40:39.613Z,89.17
2018-05-09T20:43:08.761Z,87.17
2018-05-09T20:45:37.950Z,84.40
2018-05-09T20:48:07.112Z,83.97
2018-05-09T20:50:36.302Z,84.87
2018-05-09T20:53:05.428Z,81.57
2018-05-09T20:55:36.455Z,85.60
2018-05-09T20:58:05.699Z,85.63
2018-05-09T21:00:34.820Z,85.20
2018-05-09T21:03:03.979Z,81.30
2018-05-09T21:05:33.265Z,83.90
2018-05-09T21:08:02.541Z,82.50
2018-05-09T21:10:31.716Z,84.70
2018-05-09T21:13:00.843Z,84.27
2018-05-09T21:15:30.027Z,84.77
2018-05-09T21:17:59.173Z,85.90
2018-05-09T21:20:28.313Z,86.40
2018-05-09T21:22:57.527Z,85.17
2018-05-09T21:25:26.657Z,89.37
2018-05-09T21:27:55.785Z,84.60
2018-05-09T21:30:24.937Z,91.47
2018-05-09T21:32:54.053Z,88.23
2018-05-09T21:35:23.490Z,90.17
2018-05-09T21:37:52.636Z,85.27
2018-05-09T21:40:21.784Z,89.47
2018-05-09T21:42:50.940Z,84.77
2018-05-09T21:45:20.085Z,84.33
2018-05-09T21:47:49.204Z,88.87
2018-05-09T21:50:18.412Z,92.83
2018-05-09T21:52:47.555Z,88.87
2018-05-09T21:55:16.753Z,88.30
2018-05-09T21:57:45.884Z,92.20
2018-05-09T22:00:20.438Z,84.23
2018-05-09T22:02:49.591Z,86.70
2018-05-09T22:05:18.736Z,88.87
2018-05-09T22:07:47.892Z,86.07
2018-05-09T22:10:17.032Z,97.07
2018-05-09T22:12:46.172Z,84.57
2018-05-09T22:15:15.310Z,83.77
2018-05-09T22:17:44.485Z,85.90
2018-05-09T22:20:13.620Z,86.37
2018-05-09T22:22:42.736Z,89.20
2018-05-09T22:25:11.915Z,83.77
2018-05-09T22:27:41.072Z,86.20
2018-05-09T22:30:10.206Z,83.57
2018-05-09T22:32:39.328Z,87.87
2018-05-09T22:35:08.477Z,87.80
2018-05-09T22:37:38.245Z,85.50
2018-05-09T22:40:07.392Z,85.10
2018-05-09T22:42:36.591Z,84.57
2018-05-09T22:45:05.758Z,85.33
2018-05-09T22:47:34.906Z,84.37
2018-05-09T22:50:04.156Z,84.73
2018-05-09T22:52:33.354Z,86.90
2018-05-09T22:55:02.548Z,85.97
2018-05-09T22:57:31.678Z,84.83
2018-05-09T23:00:00.832Z,84.07
2018-05-09T23:02:29.953Z,83.00
2018-05-09T23:04:59.103Z,87.40
2018-05-09T23:07:28.219Z,84.97
2018-05-09T23:09:57.348Z,83.33
2018-05-09T23:12:26.540Z,85.80
2018-05-09T23:14:55.654Z,85.37
2018-05-09T23:17:24.791Z,84.07
2018-05-09T23:19:53.957Z,87.20
2018-05-09T23:22:23.099Z,85.83
2018-05-09T23:24:52.248Z,85.27
2018-05-09T23:27:21.596Z,82.87
2018-05-09T23:29:50.707Z,87.00
2018-05-09T23:32:19.844Z,86.50
2018-05-09T23:34:49.039Z,86.50
2018-05-09T23:37:18.171Z,87.90
2018-05-09T23:39:47.577Z,88.40
2018-05-09T23:42:16.744Z,94.47
2018-05-09T23:44:45.888Z,87.30
2018-05-09T23:47:15.001Z,85.43
2018-05-09T23:49:44.149Z,84.67
2018-05-09T23:52:13.352Z,83.47
2018-05-09T23:54:42.508Z,87.37
2018-05-09T23:57:11.711Z,86.70
2018-05-09T23:59:40.856Z,83.77
